sensor_id;sensor_type;location;lat;lon;timestamp;P1;durP1;ratioP1;P2;durP2;ratioP2
45893;SDS011;31603;51.148;16.932;2022-08-07T00:01:21;3.75;;;1.40;;
45893;SDS011;31603;51.148;16.932;2022-08-07T00:03:48;4.43;;;1.23;;
45893;SDS011;31603;51.148;16.932;2022-08-07T00:06:14;2.15;;;1.00;;
45893;SDS011;31603;51.148;16.932;2022-08-07T00:08:40;3.38;;;1.30;;
45893;SDS011;31603;51.148;16.932;2022-08-07T00:11:07;3.85;;;1.60;;
45893;SDS011;31603;51.148;16.932;2022-08-07T00:13:33;4.10;;;1.85;;
45893;SDS011;31603;51.148;16.932;2022-08-07T00:16:01;2.42;;;1.27;;
45893;SDS011;31603;51.148;16.932;2022-08-07T00:18:28;1.75;;;1.13;;
45893;SDS011;31603;51.148;16.932;2022-08-07T00:20:56;2.17;;;1.30;;
45893;SDS011;31603;51.148;16.932;2022-08-07T00:23:23;1.25;;;1.10;;
45893;SDS011;31603;51.148;16.932;2022-08-07T00:25:49;3.03;;;1.60;;
45893;SDS011;31603;51.148;16.932;2022-08-07T00:28:15;6.10;;;1.70;;
45893;SDS011;31603;51.148;16.932;2022-08-07T00:30:42;3.55;;;1.38;;
45893;SDS011;31603;51.148;16.932;2022-08-07T00:33:08;2.83;;;1.15;;
45893;SDS011;31603;51.148;16.932;2022-08-07T00:35:36;2.70;;;1.40;;
45893;SDS011;31603;51.148;16.932;2022-08-07T00:38:02;3.25;;;1.20;;
45893;SDS011;31603;51.148;16.932;2022-08-07T00:40:29;2.72;;;1.08;;
45893;SDS011;31603;51.148;16.932;2022-08-07T00:42:56;3.92;;;1.30;;
45893;SDS011;31603;51.148;16.932;2022-08-07T00:45:22;2.38;;;1.20;;
45893;SDS011;31603;51.148;16.932;2022-08-07T00:47:49;3.22;;;1.33;;
45893;SDS011;31603;51.148;16.932;2022-08-07T00:50:15;3.25;;;1.10;;
45893;SDS011;31603;51.148;16.932;2022-08-07T00:52:43;1.63;;;1.13;;
45893;SDS011;31603;51.148;16.932;2022-08-07T00:55:09;3.72;;;1.70;;
45893;SDS011;31603;51.148;16.932;2022-08-07T00:57:36;2.35;;;1.20;;
45893;SDS011;31603;51.148;16.932;2022-08-07T01:00:02;6.30;;;1.50;;
45893;SDS011;31603;51.148;16.932;2022-08-07T01:02:30;5.22;;;1.40;;
45893;SDS011;31603;51.148;16.932;2022-08-07T01:04:56;4.50;;;1.27;;
45893;SDS011;31603;51.148;16.932;2022-08-07T01:07:24;4.50;;;1.40;;
45893;SDS011;31603;51.148;16.932;2022-08-07T01:09:51;2.60;;;1.45;;
45893;SDS011;31603;51.148;16.932;2022-08-07T01:12:18;3.55;;;1.30;;
45893;SDS011;31603;51.148;16.932;2022-08-07T01:14:44;3.20;;;1.50;;
45893;SDS011;31603;51.148;16.932;2022-08-07T01:17:11;5.28;;;1.50;;
45893;SDS011;31603;51.148;16.932;2022-08-07T01:19:38;3.97;;;1.33;;
45893;SDS011;31603;51.148;16.932;2022-08-07T01:22:05;3.45;;;1.48;;
45893;SDS011;31603;51.148;16.932;2022-08-07T01:24:32;2.47;;;1.30;;
45893;SDS011;31603;51.148;16.932;2022-08-07T01:26:59;2.17;;;1.50;;
45893;SDS011;31603;51.148;16.932;2022-08-07T01:29:26;3.13;;;1.48;;
45893;SDS011;31603;51.148;16.932;2022-08-07T01:31:53;2.67;;;1.40;;
45893;SDS011;31603;51.148;16.932;2022-08-07T01:34:19;3.72;;;1.10;;
45893;SDS011;31603;51.148;16.932;2022-08-07T01:36:47;2.28;;;1.50;;
45893;SDS011;31603;51.148;16.932;2022-08-07T01:39:17;2.13;;;1.83;;
45893;SDS011;31603;51.148;16.932;2022-08-07T01:41:45;3.65;;;1.70;;
45893;SDS011;31603;51.148;16.932;2022-08-07T01:44:11;2.63;;;1.50;;
45893;SDS011;31603;51.148;16.932;2022-08-07T01:46:40;3.08;;;1.60;;
45893;SDS011;31603;51.148;16.932;2022-08-07T01:49:07;3.13;;;1.45;;
45893;SDS011;31603;51.148;16.932;2022-08-07T01:51:35;2.67;;;1.95;;
45893;SDS011;31603;51.148;16.932;2022-08-07T01:54:03;3.53;;;1.73;;
45893;SDS011;31603;51.148;16.932;2022-08-07T01:56:35;3.15;;;1.60;;
45893;SDS011;31603;51.148;16.932;2022-08-07T01:59:04;6.10;;;1.77;;
45893;SDS011;31603;51.148;16.932;2022-08-07T02:01:32;2.60;;;1.48;;
45893;SDS011;31603;51.148;16.932;2022-08-07T02:04:00;2.47;;;1.67;;
45893;SDS011;31603;51.148;16.932;2022-08-07T02:06:28;1.55;;;1.45;;
45893;SDS011;31603;51.148;16.932;2022-08-07T02:08:55;3.80;;;1.50;;
45893;SDS011;31603;51.148;16.932;2022-08-07T02:11:24;3.40;;;1.77;;
45893;SDS011;31603;51.148;16.932;2022-08-07T02:13:51;4.97;;;1.90;;
45893;SDS011;31603;51.148;16.932;2022-08-07T02:16:19;7.40;;;1.83;;
45893;SDS011;31603;51.148;16.932;2022-08-07T02:18:47;5.35;;;1.75;;
45893;SDS011;31603;51.148;16.932;2022-08-07T02:21:14;9.30;;;1.58;;
45893;SDS011;31603;51.148;16.932;2022-08-07T02:23:41;3.38;;;2.08;;
45893;SDS011;31603;51.148;16.932;2022-08-07T02:26:08;2.60;;;1.48;;
45893;SDS011;31603;51.148;16.932;2022-08-07T02:28:35;3.33;;;1.58;;
45893;SDS011;31603;51.148;16.932;2022-08-07T02:31:03;3.55;;;1.80;;
45893;SDS011;31603;51.148;16.932;2022-08-07T02:33:31;3.75;;;1.77;;
45893;SDS011;31603;51.148;16.932;2022-08-07T02:35:58;2.03;;;1.60;;
45893;SDS011;31603;51.148;16.932;2022-08-07T02:38:26;3.42;;;2.10;;
45893;SDS011;31603;51.148;16.932;2022-08-07T02:40:53;3.25;;;1.60;;
45893;SDS011;31603;51.148;16.932;2022-08-07T02:43:19;4.93;;;1.50;;
45893;SDS011;31603;51.148;16.932;2022-08-07T02:45:46;3.42;;;1.90;;
45893;SDS011;31603;51.148;16.932;2022-08-07T02:48:15;7.78;;;2.33;;
45893;SDS011;31603;51.148;16.932;2022-08-07T02:50:42;7.78;;;1.70;;
45893;SDS011;31603;51.148;16.932;2022-08-07T02:53:10;5.78;;;1.77;;
45893;SDS011;31603;51.148;16.932;2022-08-07T02:55:38;3.08;;;2.13;;
45893;SDS011;31603;51.148;16.932;2022-08-07T02:58:09;2.00;;;1.80;;
45893;SDS011;31603;51.148;16.932;2022-08-07T03:00:36;5.07;;;1.92;;
45893;SDS011;31603;51.148;16.932;2022-08-07T03:03:04;3.65;;;2.30;;
45893;SDS011;31603;51.148;16.932;2022-08-07T03:05:32;3.05;;;2.15;;
45893;SDS011;31603;51.148;16.932;2022-08-07T03:08:00;4.40;;;2.38;;
45893;SDS011;31603;51.148;16.932;2022-08-07T03:10:27;5.30;;;2.30;;
45893;SDS011;31603;51.148;16.932;2022-08-07T03:12:53;4.10;;;1.92;;
45893;SDS011;31603;51.148;16.932;2022-08-07T03:15:20;4.75;;;2.08;;
45893;SDS011;31603;51.148;16.932;2022-08-07T03:17:46;3.65;;;2.17;;
45893;SDS011;31603;51.148;16.932;2022-08-07T03:20:13;4.03;;;1.63;;
45893;SDS011;31603;51.148;16.932;2022-08-07T03:22:41;4.35;;;1.92;;
45893;SDS011;31603;51.148;16.932;2022-08-07T03:25:07;4.50;;;2.10;;
45893;SDS011;31603;51.148;16.932;2022-08-07T03:27:34;2.92;;;1.90;;
45893;SDS011;31603;51.148;16.932;2022-08-07T03:30:00;2.88;;;1.95;;
45893;SDS011;31603;51.148;16.932;2022-08-07T03:32:32;4.00;;;1.80;;
45893;SDS011;31603;51.148;16.932;2022-08-07T03:35:00;3.75;;;1.80;;
45893;SDS011;31603;51.148;16.932;2022-08-07T03:37:28;5.10;;;2.28;;
45893;SDS011;31603;51.148;16.932;2022-08-07T03:39:57;4.18;;;2.28;;
45893;SDS011;31603;51.148;16.932;2022-08-07T03:42:23;4.25;;;2.20;;
45893;SDS011;31603;51.148;16.932;2022-08-07T03:44:50;7.28;;;2.05;;
45893;SDS011;31603;51.148;16.932;2022-08-07T03:47:17;4.93;;;2.53;;
45893;SDS011;31603;51.148;16.932;2022-08-07T03:49:43;3.85;;;1.90;;
45893;SDS011;31603;51.148;16.932;2022-08-07T03:52:10;6.72;;;2.42;;
45893;SDS011;31603;51.148;16.932;2022-08-07T03:54:37;6.05;;;2.95;;
45893;SDS011;31603;51.148;16.932;2022-08-07T03:57:05;4.70;;;2.50;;
45893;SDS011;31603;51.148;16.932;2022-08-07T03:59:32;8.55;;;2.63;;
45893;SDS011;31603;51.148;16.932;2022-08-07T04:01:58;5.90;;;2.83;;
45893;SDS011;31603;51.148;16.932;2022-08-07T04:04:25;3.13;;;2.05;;
45893;SDS011;31603;51.148;16.932;2022-08-07T04:06:51;2.70;;;2.20;;
45893;SDS011;31603;51.148;16.932;2022-08-07T04:09:18;5.30;;;2.40;;
45893;SDS011;31603;51.148;16.932;2022-08-07T04:11:45;6.57;;;3.10;;
45893;SDS011;31603;51.148;16.932;2022-08-07T04:14:13;5.00;;;2.50;;
45893;SDS011;31603;51.148;16.932;2022-08-07T04:16:39;4.25;;;3.60;;
45893;SDS011;31603;51.148;16.932;2022-08-07T04:19:06;7.22;;;3.90;;
45893;SDS011;31603;51.148;16.932;2022-08-07T04:21:32;6.07;;;4.32;;
45893;SDS011;31603;51.148;16.932;2022-08-07T04:23:59;7.20;;;3.80;;
45893;SDS011;31603;51.148;16.932;2022-08-07T04:26:26;4.15;;;2.78;;
45893;SDS011;31603;51.148;16.932;2022-08-07T04:28:52;5.47;;;2.70;;
45893;SDS011;31603;51.148;16.932;2022-08-07T04:31:23;5.45;;;3.17;;
45893;SDS011;31603;51.148;16.932;2022-08-07T04:33:49;4.07;;;2.67;;
45893;SDS011;31603;51.148;16.932;2022-08-07T04:36:16;5.63;;;2.70;;
45893;SDS011;31603;51.148;16.932;2022-08-07T04:38:42;3.67;;;2.40;;
45893;SDS011;31603;51.148;16.932;2022-08-07T04:41:09;7.07;;;2.00;;
45893;SDS011;31603;51.148;16.932;2022-08-07T04:43:36;6.43;;;2.20;;
45893;SDS011;31603;51.148;16.932;2022-08-07T04:46:05;3.97;;;2.20;;
45893;SDS011;31603;51.148;16.932;2022-08-07T04:48:37;4.32;;;2.38;;
45893;SDS011;31603;51.148;16.932;2022-08-07T04:51:07;5.18;;;2.00;;
45893;SDS011;31603;51.148;16.932;2022-08-07T04:53:36;2.67;;;1.88;;
45893;SDS011;31603;51.148;16.932;2022-08-07T05:08:26;2.85;;;2.00;;
45893;SDS011;31603;51.148;16.932;2022-08-07T05:11:00;3.60;;;2.00;;
45893;SDS011;31603;51.148;16.932;2022-08-07T05:13:35;4.80;;;1.90;;
45893;SDS011;31603;51.148;16.932;2022-08-07T05:16:05;4.05;;;1.92;;
45893;SDS011;31603;51.148;16.932;2022-08-07T05:18:35;2.63;;;2.00;;
45893;SDS011;31603;51.148;16.932;2022-08-07T05:21:09;4.90;;;1.90;;
45893;SDS011;31603;51.148;16.932;2022-08-07T05:23:41;4.68;;;1.60;;
45893;SDS011;31603;51.148;16.932;2022-08-07T05:26:13;4.32;;;1.58;;
45893;SDS011;31603;51.148;16.932;2022-08-07T05:28:42;2.17;;;1.52;;
45893;SDS011;31603;51.148;16.932;2022-08-07T05:31:10;5.15;;;1.60;;
45893;SDS011;31603;51.148;16.932;2022-08-07T05:33:38;3.95;;;1.60;;
45893;SDS011;31603;51.148;16.932;2022-08-07T05:36:08;1.73;;;1.30;;
45893;SDS011;31603;51.148;16.932;2022-08-07T05:38:35;3.50;;;1.20;;
45893;SDS011;31603;51.148;16.932;2022-08-07T05:41:05;3.05;;;1.40;;
45893;SDS011;31603;51.148;16.932;2022-08-07T05:43:33;3.88;;;1.50;;
45893;SDS011;31603;51.148;16.932;2022-08-07T05:46:00;2.80;;;1.35;;
45893;SDS011;31603;51.148;16.932;2022-08-07T05:48:27;2.65;;;1.40;;
45893;SDS011;31603;51.148;16.932;2022-08-07T05:50:54;2.13;;;1.30;;
45893;SDS011;31603;51.148;16.932;2022-08-07T05:53:21;4.90;;;1.40;;
45893;SDS011;31603;51.148;16.932;2022-08-07T05:55:48;3.03;;;1.40;;
45893;SDS011;31603;51.148;16.932;2022-08-07T05:58:17;4.18;;;1.90;;
45893;SDS011;31603;51.148;16.932;2022-08-07T06:00:45;1.20;;;1.10;;
45893;SDS011;31603;51.148;16.932;2022-08-07T06:03:13;4.80;;;1.58;;
45893;SDS011;31603;51.148;16.932;2022-08-07T06:05:41;4.97;;;1.50;;
45893;SDS011;31603;51.148;16.932;2022-08-07T06:08:08;3.35;;;1.10;;
45893;SDS011;31603;51.148;16.932;2022-08-07T06:10:36;2.85;;;1.30;;
45893;SDS011;31603;51.148;16.932;2022-08-07T06:13:03;5.25;;;1.30;;
45893;SDS011;31603;51.148;16.932;2022-08-07T06:15:35;4.38;;;1.20;;
45893;SDS011;31603;51.148;16.932;2022-08-07T06:18:03;6.90;;;1.80;;
45893;SDS011;31603;51.148;16.932;2022-08-07T06:20:31;4.13;;;1.15;;
45893;SDS011;31603;51.148;16.932;2022-08-07T06:23:00;2.97;;;1.17;;
45893;SDS011;31603;51.148;16.932;2022-08-07T06:25:29;4.20;;;1.20;;
45893;SDS011;31603;51.148;16.932;2022-08-07T06:28:00;2.75;;;1.25;;
45893;SDS011;31603;51.148;16.932;2022-08-07T06:30:27;2.22;;;1.20;;
45893;SDS011;31603;51.148;16.932;2022-08-07T06:32:55;3.03;;;1.42;;
45893;SDS011;31603;51.148;16.932;2022-08-07T06:35:21;3.05;;;1.25;;
45893;SDS011;31603;51.148;16.932;2022-08-07T06:37:48;1.50;;;1.10;;
45893;SDS011;31603;51.148;16.932;2022-08-07T06:40:14;2.38;;;1.23;;
45893;SDS011;31603;51.148;16.932;2022-08-07T06:42:41;1.90;;;1.25;;
45893;SDS011;31603;51.148;16.932;2022-08-07T06:45:12;2.35;;;1.17;;
45893;SDS011;31603;51.148;16.932;2022-08-07T06:47:40;2.05;;;1.08;;
45893;SDS011;31603;51.148;16.932;2022-08-07T06:50:08;1.95;;;1.02;;
45893;SDS011;31603;51.148;16.932;2022-08-07T06:52:36;2.67;;;1.35;;
45893;SDS011;31603;51.148;16.932;2022-08-07T06:55:10;2.78;;;1.50;;
45893;SDS011;31603;51.148;16.932;2022-08-07T06:57:40;2.60;;;1.05;;
45893;SDS011;31603;51.148;16.932;2022-08-07T07:00:10;3.55;;;1.15;;
45893;SDS011;31603;51.148;16.932;2022-08-07T07:02:37;3.33;;;1.48;;
45893;SDS011;31603;51.148;16.932;2022-08-07T07:05:05;4.15;;;1.00;;
45893;SDS011;31603;51.148;16.932;2022-08-07T07:07:39;2.92;;;1.15;;
45893;SDS011;31603;51.148;16.932;2022-08-07T07:12:39;1.92;;;1.02;;
45893;SDS011;31603;51.148;16.932;2022-08-07T07:15:12;2.10;;;1.00;;
45893;SDS011;31603;51.148;16.932;2022-08-07T07:17:44;3.38;;;1.13;;
45893;SDS011;31603;51.148;16.932;2022-08-07T07:20:19;3.75;;;0.90;;
45893;SDS011;31603;51.148;16.932;2022-08-07T07:22:50;2.17;;;1.20;;
45893;SDS011;31603;51.148;16.932;2022-08-07T07:25:18;2.33;;;1.15;;
45893;SDS011;31603;51.148;16.932;2022-08-07T07:27:47;3.55;;;1.30;;
45893;SDS011;31603;51.148;16.932;2022-08-07T07:30:19;2.03;;;1.00;;
45893;SDS011;31603;51.148;16.932;2022-08-07T07:32:49;3.00;;;1.13;;
45893;SDS011;31603;51.148;16.932;2022-08-07T07:35:18;2.05;;;1.13;;
45893;SDS011;31603;51.148;16.932;2022-08-07T07:37:50;2.85;;;1.00;;
45893;SDS011;31603;51.148;16.932;2022-08-07T07:40:20;1.25;;;1.02;;
45893;SDS011;31603;51.148;16.932;2022-08-07T07:42:53;3.78;;;1.15;;
45893;SDS011;31603;51.148;16.932;2022-08-07T07:45:23;3.85;;;1.30;;
45893;SDS011;31603;51.148;16.932;2022-08-07T07:47:52;4.05;;;0.95;;
45893;SDS011;31603;51.148;16.932;2022-08-07T07:50:22;2.00;;;1.17;;
45893;SDS011;31603;51.148;16.932;2022-08-07T07:52:51;2.00;;;1.05;;
45893;SDS011;31603;51.148;16.932;2022-08-07T07:55:18;2.25;;;0.80;;
45893;SDS011;31603;51.148;16.932;2022-08-07T07:57:48;4.00;;;1.00;;
45893;SDS011;31603;51.148;16.932;2022-08-07T08:00:16;2.17;;;0.98;;
45893;SDS011;31603;51.148;16.932;2022-08-07T08:02:44;2.00;;;0.80;;
45893;SDS011;31603;51.148;16.932;2022-08-07T08:05:12;3.20;;;1.00;;
45893;SDS011;31603;51.148;16.932;2022-08-07T08:07:42;3.88;;;0.65;;
45893;SDS011;31603;51.148;16.932;2022-08-07T08:10:12;1.45;;;0.77;;
45893;SDS011;31603;51.148;16.932;2022-08-07T08:12:39;4.18;;;0.93;;
45893;SDS011;31603;51.148;16.932;2022-08-07T08:15:07;3.20;;;1.00;;
45893;SDS011;31603;51.148;16.932;2022-08-07T08:17:34;2.47;;;0.90;;
45893;SDS011;31603;51.148;16.932;2022-08-07T08:20:09;4.93;;;0.90;;
45893;SDS011;31603;51.148;16.932;2022-08-07T08:22:39;2.17;;;0.90;;
45893;SDS011;31603;51.148;16.932;2022-08-07T08:25:27;2.45;;;0.70;;
45893;SDS011;31603;51.148;16.932;2022-08-07T08:28:17;1.58;;;0.73;;
45893;SDS011;31603;51.148;16.932;2022-08-07T08:30:52;3.33;;;0.70;;
45893;SDS011;31603;51.148;16.932;2022-08-07T08:33:22;0.65;;;0.50;;
45893;SDS011;31603;51.148;16.932;2022-08-07T08:35:52;2.85;;;0.70;;
45893;SDS011;31603;51.148;16.932;2022-08-07T08:38:21;1.15;;;0.52;;
45893;SDS011;31603;51.148;16.932;2022-08-07T08:43:50;3.00;;;0.75;;
45893;SDS011;31603;51.148;16.932;2022-08-07T08:46:27;1.20;;;0.50;;
45893;SDS011;31603;51.148;16.932;2022-08-07T08:49:04;1.67;;;0.70;;
45893;SDS011;31603;51.148;16.932;2022-08-07T08:51:38;1.17;;;0.65;;
45893;SDS011;31603;51.148;16.932;2022-08-07T08:54:14;1.15;;;0.77;;
45893;SDS011;31603;51.148;16.932;2022-08-07T08:56:48;1.13;;;0.57;;
45893;SDS011;31603;51.148;16.932;2022-08-07T08:59:19;2.15;;;0.80;;
45893;SDS011;31603;51.148;16.932;2022-08-07T09:01:52;3.88;;;0.65;;
45893;SDS011;31603;51.148;16.932;2022-08-07T09:04:33;1.52;;;0.63;;
45893;SDS011;31603;51.148;16.932;2022-08-07T09:07:07;2.05;;;0.70;;
45893;SDS011;31603;51.148;16.932;2022-08-07T09:09:41;1.00;;;0.60;;
45893;SDS011;31603;51.148;16.932;2022-08-07T09:12:22;1.95;;;0.70;;
45893;SDS011;31603;51.148;16.932;2022-08-07T09:15:09;2.97;;;0.93;;
45893;SDS011;31603;51.148;16.932;2022-08-07T09:17:45;1.15;;;0.80;;
45893;SDS011;31603;51.148;16.932;2022-08-07T09:20:23;1.13;;;0.55;;
45893;SDS011;31603;51.148;16.932;2022-08-07T09:22:56;1.63;;;0.57;;
45893;SDS011;31603;51.148;16.932;2022-08-07T09:25:33;1.05;;;0.60;;
45893;SDS011;31603;51.148;16.932;2022-08-07T09:28:09;2.97;;;0.82;;
45893;SDS011;31603;51.148;16.932;2022-08-07T09:30:58;2.30;;;0.70;;
45893;SDS011;31603;51.148;16.932;2022-08-07T09:33:34;2.45;;;0.88;;
45893;SDS011;31603;51.148;16.932;2022-08-07T09:36:13;1.48;;;0.70;;
45893;SDS011;31603;51.148;16.932;2022-08-07T09:38:45;1.52;;;0.60;;
45893;SDS011;31603;51.148;16.932;2022-08-07T09:41:20;1.50;;;0.93;;
45893;SDS011;31603;51.148;16.932;2022-08-07T09:43:57;2.40;;;1.30;;
45893;SDS011;31603;51.148;16.932;2022-08-07T09:46:37;2.75;;;1.30;;
45893;SDS011;31603;51.148;16.932;2022-08-07T09:49:17;1.23;;;0.93;;
45893;SDS011;31603;51.148;16.932;2022-08-07T09:51:59;3.03;;;1.00;;
45893;SDS011;31603;51.148;16.932;2022-08-07T09:54:32;1.30;;;0.80;;
45893;SDS011;31603;51.148;16.932;2022-08-07T10:00:10;2.50;;;0.93;;
45893;SDS011;31603;51.148;16.932;2022-08-07T10:05:53;1.70;;;0.70;;
45893;SDS011;31603;51.148;16.932;2022-08-07T10:08:39;2.63;;;0.80;;
45893;SDS011;31603;51.148;16.932;2022-08-07T10:11:26;3.22;;;0.93;;
45893;SDS011;31603;51.148;16.932;2022-08-07T10:14:11;1.52;;;0.90;;
45893;SDS011;31603;51.148;16.932;2022-08-07T10:16:59;3.88;;;1.13;;
45893;SDS011;31603;51.148;16.932;2022-08-07T10:19:48;1.25;;;0.75;;
45893;SDS011;31603;51.148;16.932;2022-08-07T10:22:30;1.60;;;0.60;;
45893;SDS011;31603;51.148;16.932;2022-08-07T10:25:15;1.05;;;0.68;;
45893;SDS011;31603;51.148;16.932;2022-08-07T10:30:47;3.10;;;0.80;;
45893;SDS011;31603;51.148;16.932;2022-08-07T10:33:29;1.60;;;0.75;;
45893;SDS011;31603;51.148;16.932;2022-08-07T10:36:13;4.95;;;0.90;;
45893;SDS011;31603;51.148;16.932;2022-08-07T10:38:50;1.95;;;0.82;;
45893;SDS011;31603;51.148;16.932;2022-08-07T10:41:24;3.17;;;0.90;;
45893;SDS011;31603;51.148;16.932;2022-08-07T10:43:58;2.60;;;1.02;;
45893;SDS011;31603;51.148;16.932;2022-08-07T10:46:35;2.92;;;0.80;;
45893;SDS011;31603;51.148;16.932;2022-08-07T10:49:12;2.10;;;0.70;;
45893;SDS011;31603;51.148;16.932;2022-08-07T10:51:47;1.63;;;0.65;;
45893;SDS011;31603;51.148;16.932;2022-08-07T10:54:20;2.40;;;0.73;;
45893;SDS011;31603;51.148;16.932;2022-08-07T10:56:59;1.98;;;1.08;;
45893;SDS011;31603;51.148;16.932;2022-08-07T10:59:37;0.80;;;0.60;;
45893;SDS011;31603;51.148;16.932;2022-08-07T11:02:14;1.75;;;0.80;;
45893;SDS011;31603;51.148;16.932;2022-08-07T11:04:54;2.38;;;0.80;;
45893;SDS011;31603;51.148;16.932;2022-08-07T11:07:32;2.08;;;0.90;;
45893;SDS011;31603;51.148;16.932;2022-08-07T11:10:04;2.33;;;0.90;;
45893;SDS011;31603;51.148;16.932;2022-08-07T11:12:39;1.45;;;0.60;;
45893;SDS011;31603;51.148;16.932;2022-08-07T11:15:16;1.35;;;0.70;;
45893;SDS011;31603;51.148;16.932;2022-08-07T11:17:48;1.00;;;0.70;;
45893;SDS011;31603;51.148;16.932;2022-08-07T11:20:19;0.60;;;0.60;;
45893;SDS011;31603;51.148;16.932;2022-08-07T11:22:50;0.85;;;0.70;;
45893;SDS011;31603;51.148;16.932;2022-08-07T11:25:24;1.55;;;0.90;;
45893;SDS011;31603;51.148;16.932;2022-08-07T11:27:59;2.60;;;1.10;;
45893;SDS011;31603;51.148;16.932;2022-08-07T11:30:33;1.73;;;0.90;;
45893;SDS011;31603;51.148;16.932;2022-08-07T11:33:20;1.45;;;0.65;;
45893;SDS011;31603;51.148;16.932;2022-08-07T11:35:56;2.10;;;0.93;;
45893;SDS011;31603;51.148;16.932;2022-08-07T11:38:38;1.20;;;0.82;;
45893;SDS011;31603;51.148;16.932;2022-08-07T11:41:12;1.80;;;0.90;;
45893;SDS011;31603;51.148;16.932;2022-08-07T11:43:41;2.05;;;0.90;;
45893;SDS011;31603;51.148;16.932;2022-08-07T11:46:15;1.63;;;0.85;;
45893;SDS011;31603;51.148;16.932;2022-08-07T11:49:17;1.52;;;0.88;;
45893;SDS011;31603;51.148;16.932;2022-08-07T11:51:56;1.30;;;0.70;;
45893;SDS011;31603;51.148;16.932;2022-08-07T11:54:41;0.75;;;0.75;;
45893;SDS011;31603;51.148;16.932;2022-08-07T11:57:19;1.77;;;0.80;;
45893;SDS011;31603;51.148;16.932;2022-08-07T12:02:41;2.13;;;0.80;;
45893;SDS011;31603;51.148;16.932;2022-08-07T12:05:47;2.05;;;0.90;;
45893;SDS011;31603;51.148;16.932;2022-08-07T12:08:29;3.22;;;0.88;;
45893;SDS011;31603;51.148;16.932;2022-08-07T12:11:02;0.98;;;0.88;;
45893;SDS011;31603;51.148;16.932;2022-08-07T12:13:36;2.40;;;0.88;;
45893;SDS011;31603;51.148;16.932;2022-08-07T12:16:09;1.15;;;0.77;;
45893;SDS011;31603;51.148;16.932;2022-08-07T12:18:42;3.00;;;1.00;;
45893;SDS011;31603;51.148;16.932;2022-08-07T12:21:15;1.55;;;0.90;;
45893;SDS011;31603;51.148;16.932;2022-08-07T12:24:03;11.45;;;1.45;;
45893;SDS011;31603;51.148;16.932;2022-08-07T12:26:36;6.10;;;1.25;;
45893;SDS011;31603;51.148;16.932;2022-08-07T12:29:07;1.27;;;0.70;;
45893;SDS011;31603;51.148;16.932;2022-08-07T12:34:09;5.78;;;1.20;;
45893;SDS011;31603;51.148;16.932;2022-08-07T12:36:36;1.15;;;0.80;;
45893;SDS011;31603;51.148;16.932;2022-08-07T12:39:05;1.42;;;0.80;;
45893;SDS011;31603;51.148;16.932;2022-08-07T12:41:33;2.67;;;0.80;;
45893;SDS011;31603;51.148;16.932;2022-08-07T12:44:03;1.40;;;0.90;;
45893;SDS011;31603;51.148;16.932;2022-08-07T12:46:35;1.27;;;0.70;;
45893;SDS011;31603;51.148;16.932;2022-08-07T12:49:10;2.70;;;0.82;;
45893;SDS011;31603;51.148;16.932;2022-08-07T12:51:42;2.28;;;0.80;;
45893;SDS011;31603;51.148;16.932;2022-08-07T12:54:20;1.55;;;0.70;;
45893;SDS011;31603;51.148;16.932;2022-08-07T12:56:52;1.02;;;0.93;;
45893;SDS011;31603;51.148;16.932;2022-08-07T12:59:22;2.85;;;1.05;;
45893;SDS011;31603;51.148;16.932;2022-08-07T13:01:54;2.53;;;0.88;;
45893;SDS011;31603;51.148;16.932;2022-08-07T13:04:28;0.77;;;0.70;;
45893;SDS011;31603;51.148;16.932;2022-08-07T13:10:16;1.97;;;1.00;;
45893;SDS011;31603;51.148;16.932;2022-08-07T13:12:55;1.52;;;0.95;;
45893;SDS011;31603;51.148;16.932;2022-08-07T13:15:36;1.17;;;0.73;;
45893;SDS011;31603;51.148;16.932;2022-08-07T13:18:14;1.27;;;0.70;;
45893;SDS011;31603;51.148;16.932;2022-08-07T13:20:48;0.95;;;0.80;;
45893;SDS011;31603;51.148;16.932;2022-08-07T13:23:23;2.13;;;0.52;;
45893;SDS011;31603;51.148;16.932;2022-08-07T13:26:00;1.48;;;0.73;;
45893;SDS011;31603;51.148;16.932;2022-08-07T13:28:33;2.90;;;1.20;;
45893;SDS011;31603;51.148;16.932;2022-08-07T13:31:04;1.67;;;0.93;;
45893;SDS011;31603;51.148;16.932;2022-08-07T13:33:36;1.13;;;1.00;;
45893;SDS011;31603;51.148;16.932;2022-08-07T13:36:12;1.33;;;0.90;;
45893;SDS011;31603;51.148;16.932;2022-08-07T13:38:45;1.65;;;0.73;;
45893;SDS011;31603;51.148;16.932;2022-08-07T13:41:20;1.08;;;0.70;;
45893;SDS011;31603;51.148;16.932;2022-08-07T13:43:54;1.27;;;0.70;;
45893;SDS011;31603;51.148;16.932;2022-08-07T13:46:27;1.30;;;1.13;;
45893;SDS011;31603;51.148;16.932;2022-08-07T13:48:56;1.50;;;0.90;;
45893;SDS011;31603;51.148;16.932;2022-08-07T13:51:25;1.65;;;0.88;;
45893;SDS011;31603;51.148;16.932;2022-08-07T13:53:55;1.90;;;0.85;;
45893;SDS011;31603;51.148;16.932;2022-08-07T13:56:25;2.15;;;0.80;;
45893;SDS011;31603;51.148;16.932;2022-08-07T13:58:53;1.38;;;0.65;;
45893;SDS011;31603;51.148;16.932;2022-08-07T14:01:26;4.93;;;1.10;;
45893;SDS011;31603;51.148;16.932;2022-08-07T14:03:54;0.65;;;0.60;;
45893;SDS011;31603;51.148;16.932;2022-08-07T14:06:22;1.15;;;0.65;;
45893;SDS011;31603;51.148;16.932;2022-08-07T14:08:56;2.30;;;0.52;;
45893;SDS011;31603;51.148;16.932;2022-08-07T14:11:25;2.03;;;0.60;;
45893;SDS011;31603;51.148;16.932;2022-08-07T14:13:57;1.27;;;0.60;;
45893;SDS011;31603;51.148;16.932;2022-08-07T14:16:30;1.05;;;0.60;;
45893;SDS011;31603;51.148;16.932;2022-08-07T14:19:02;1.83;;;0.82;;
45893;SDS011;31603;51.148;16.932;2022-08-07T14:21:31;1.10;;;0.65;;
45893;SDS011;31603;51.148;16.932;2022-08-07T14:24:00;1.30;;;0.60;;
45893;SDS011;31603;51.148;16.932;2022-08-07T14:29:03;1.85;;;1.20;;
45893;SDS011;31603;51.148;16.932;2022-08-07T14:31:30;0.80;;;0.80;;
45893;SDS011;31603;51.148;16.932;2022-08-07T14:33:58;0.88;;;0.50;;
45893;SDS011;31603;51.148;16.932;2022-08-07T14:36:26;2.30;;;0.82;;
45893;SDS011;31603;51.148;16.932;2022-08-07T14:38:58;0.50;;;0.50;;
45893;SDS011;31603;51.148;16.932;2022-08-07T14:41:27;0.80;;;0.60;;
45893;SDS011;31603;51.148;16.932;2022-08-07T14:43:58;2.13;;;0.77;;
45893;SDS011;31603;51.148;16.932;2022-08-07T14:46:28;0.77;;;0.50;;
45893;SDS011;31603;51.148;16.932;2022-08-07T14:48:56;7.53;;;0.85;;
45893;SDS011;31603;51.148;16.932;2022-08-07T14:51:25;1.23;;;0.50;;
45893;SDS011;31603;51.148;16.932;2022-08-07T14:53:54;1.33;;;1.20;;
45893;SDS011;31603;51.148;16.932;2022-08-07T14:56:25;2.88;;;0.52;;
45893;SDS011;31603;51.148;16.932;2022-08-07T14:58:55;0.45;;;0.45;;
45893;SDS011;31603;51.148;16.932;2022-08-07T15:01:29;2.50;;;0.50;;
45893;SDS011;31603;51.148;16.932;2022-08-07T15:04:11;1.13;;;0.70;;
45893;SDS011;31603;51.148;16.932;2022-08-07T15:06:49;0.70;;;0.70;;
45893;SDS011;31603;51.148;16.932;2022-08-07T15:09:17;1.70;;;1.00;;
45893;SDS011;31603;51.148;16.932;2022-08-07T15:11:46;1.35;;;0.70;;
45893;SDS011;31603;51.148;16.932;2022-08-07T15:14:21;0.93;;;0.50;;
45893;SDS011;31603;51.148;16.932;2022-08-07T15:19:23;0.40;;;0.32;;
45893;SDS011;31603;51.148;16.932;2022-08-07T15:21:56;1.35;;;0.40;;
45893;SDS011;31603;51.148;16.932;2022-08-07T15:24:27;1.70;;;0.63;;
45893;SDS011;31603;51.148;16.932;2022-08-07T15:27:02;0.95;;;0.80;;
45893;SDS011;31603;51.148;16.932;2022-08-07T15:29:34;1.02;;;0.50;;
45893;SDS011;31603;51.148;16.932;2022-08-07T15:32:11;1.40;;;0.50;;
45893;SDS011;31603;51.148;16.932;2022-08-07T15:34:39;1.58;;;0.70;;
45893;SDS011;31603;51.148;16.932;2022-08-07T15:37:15;0.60;;;0.45;;